Flight Track Log - Related Links

Times and Time Zones

All times are in EDT time to prevent confusion due to time zone crossing. See the UAL1202 flight status page for this flight to view local times or setup timezone preferences in your user account.


Time Position Orientation Groundspeed Altitude Reporting Facility
EDT Latitude Longitude Course Direction KTS MPH feet Rate Location/Type
Sun 03:05:33 AM 33.9319 -118.4389 222° Southwest 173 199 1,500  Level Los Angeles Center
Sun 03:06:34 AM 33.8803 -118.4950 222° Southwest 233 268 3,900 2,281 Climbing Los Angeles Center
Sun 03:07:34 AM 33.8183 -118.5139 194° South 274 315 6,100 2,678 Climbing Los Angeles Center
Sun 03:08:35 AM 33.7403 -118.5178 182° South 284 327 9,300 2,479 Climbing Los Angeles Center
Sun 03:09:35 AM 33.6783 -118.4181 127° Southeast 326 375 11,100 1,700 Climbing Los Angeles Center
Sun 03:10:35 AM 33.6628 -118.2978 99° East 394 453 12,700 1,835 Climbing Los Angeles Center
Sun 03:11:36 AM 33.7219 -118.1814 59° Northeast 423 487 14,800 2,132 Climbing Los Angeles Center
Sun 03:12:36 AM 33.7850 -118.0603 58° Northeast 434 499 17,000 2,033 Climbing Los Angeles Center
Sun 03:13:37 AM 33.8806 -117.9672 39° Northeast 447 514 18,900 1,785 Climbing Los Angeles Center
Sun 03:14:37 AM 33.9808 -117.8767 37° Northeast 453 521 20,600 1,686 Climbing Los Angeles Center
Sun 03:15:38 AM 34.0853 -117.7803 37° Northeast 471 542 22,300 1,636 Climbing Los Angeles Center
Sun 03:16:38 AM 34.1767 -117.6614 47° Northeast 482 555 23,900 1,450 Climbing Los Angeles Center
Sun 03:17:38 AM 34.2514 -117.5211 57° Northeast 500 575 25,200 1,240 Climbing Los Angeles Center
Sun 03:18:39 AM 34.3192 -117.3700 61° Northeast 510 587 26,400 1,388 Climbing Los Angeles Center
Sun 03:19:39 AM 34.3917 -117.2111 61° Northeast 517 595 28,000 1,488 Climbing Los Angeles Center
Sun 03:20:40 AM 34.4608 -117.0578 61° Northeast 520 598 29,400 1,289 Climbing Los Angeles Center
Sun 03:21:40 AM 34.5303 -116.9039 61° Northeast 523 602 30,600 1,200 Climbing Los Angeles Center
Sun 03:22:40 AM 34.5983 -116.7494 62° Northeast 523 602 31,800 1,091 Climbing Los Angeles Center
Sun 03:23:41 AM 34.6683 -116.5944 61° Northeast 524 603 32,800 1,091 Climbing Los Angeles Center
Sun 03:24:41 AM 34.7372 -116.4358 62° Northeast 530 610 34,000 1,091 Climbing Los Angeles Center
Sun 03:25:42 AM 34.8067 -116.2778 62° Northeast 532 612 35,000 1,041 Climbing Los Angeles Center
Sun 03:26:42 AM 34.8797 -116.1189 61° Northeast 536 617 36,100 950 Climbing Los Angeles Center
Sun 03:27:42 AM 34.9492 -115.9603 62° Northeast 535 616 36,900 446 Climbing Los Angeles Center
Sun 03:28:43 AM 35.0333 -115.7692 62° Northeast 534 615 37,000 50 Climbing Los Angeles Center
Sun 03:29:43 AM 35.1031 -115.6092 62° Northeast 536 617 37,000  Level Los Angeles Center
Sun 03:30:43 AM 35.1719 -115.4486 62° Northeast 536 617 37,000  Level Los Angeles Center
Sun 03:31:44 AM 35.2403 -115.2864 63° Northeast 532 612 37,000  Level Los Angeles Center
Sun 03:32:44 AM 35.3100 -115.1297 61° Northeast 528 608 37,000  Level Los Angeles Center
Sun 03:33:57 AM 35.3792 -114.9689 62° Northeast 531 611 37,000  Level Los Angeles Center
Sun 03:34:57 AM 35.4600 -114.7719 63° Northeast 536 617 37,000  Level Los Angeles Center
Sun 03:35:58 AM 35.5275 -114.6131 62° Northeast 534 615 37,000  Level Los Angeles Center
Sun 03:36:58 AM 35.5947 -114.4536 63° Northeast 531 611 37,000  Level Los Angeles Center
Sun 03:37:58 AM 35.6625 -114.2931 63° Northeast 530 610 37,000  Level Los Angeles Center
Sun 03:38:59 AM 35.7289 -114.1306 63° Northeast 533 613 37,000  Level Los Angeles Center
Sun 03:39:59 AM 35.7964 -113.9689 63° Northeast 533 613 37,000  Level Los Angeles Center
Sun 03:40:59 AM 35.8628 -113.8056 63° Northeast 534 615 37,000  Level Los Angeles Center
Sun 03:42:00 AM 35.9300 -113.6425 63° Northeast 535 616 37,000  Level Los Angeles Center
Sun 03:43:00 AM 35.9964 -113.4786 63° Northeast 535 616 37,000  Level Los Angeles Center
Sun 03:44:01 AM 36.0633 -113.3150 63° Northeast 536 617 37,000  Level Los Angeles Center
Sun 03:45:01 AM 36.1308 -113.1467 64° Northeast 532 612 37,000  Level Los Angeles Center
Sun 03:46:01 AM 36.1961 -112.9825 64° Northeast 533 613 37,000  Level Los Angeles Center
Sun 03:47:02 AM 36.2619 -112.8192 63° Northeast 534 615 37,000  Level Los Angeles Center
Sun 03:48:02 AM 36.3275 -112.6561 63° Northeast 533 613 37,000  Level Los Angeles Center
Sun 03:49:02 AM 36.3922 -112.4917 64° Northeast 533 613 37,000  Level Los Angeles Center
Sun 03:50:03 AM 36.4575 -112.3278 64° Northeast 533 613 37,000  Level Los Angeles Center
Sun 03:51:03 AM 36.5236 -112.1614 64° Northeast 537 618 37,000  Level Los Angeles Center
Sun 03:52:03 AM 36.5872 -111.9958 64° Northeast 536 617 37,000  Level Los Angeles Center
Sun 03:53:04 AM 36.6522 -111.8297 64° Northeast 536 617 37,000  Level Los Angeles Center
Sun 03:54:04 AM 36.7158 -111.6650 64° Northeast 534 615 37,000  Level Los Angeles Center
Sun 03:55:04 AM 36.7789 -111.5025 64° Northeast 531 611 37,000  Level Los Angeles Center
Sun 03:56:05 AM 36.8550 -111.3033 64° Northeast 531 611 37,000  Level Los Angeles Center
Sun 03:57:05 AM 36.9147 -111.1400 65° Northeast 526 605 37,000  Level Los Angeles Center
Sun 03:58:12 AM 36.9772 -110.9744 65° Northeast 529 609 37,000  Level Denver Center
Sun 03:59:13 AM 37.0406 -110.8083 64° Northeast 531 611 37,000  Level Denver Center
Sun 04:00:13 AM 37.1019 -110.6397 65° Northeast 532 612 37,000  Level Denver Center
Sun 04:01:13 AM 37.1650 -110.4728 65° Northeast 532 612 37,000  Level Denver Center
Sun 04:02:14 AM 37.2267 -110.3056 65° Northeast 531 611 37,000  Level Denver Center
Sun 04:03:14 AM 37.2900 -110.1339 65° Northeast 532 612 37,000  Level Denver Center
Sun 04:04:15 AM 37.3583 -109.9444 66° East 532 612 37,000  Level Denver Center
Sun 04:05:15 AM 37.4189 -109.7822 65° Northeast 535 616 37,000  Level Denver Center
Sun 04:06:15 AM 37.4764 -109.6206 66° East 529 609 37,000  Level Denver Center
Sun 04:07:16 AM 37.5439 -109.4319 66° East 529 609 37,000  Level Denver Center
Sun 04:08:16 AM 37.6019 -109.2711 65° Northeast 527 606 37,000  Level Denver Center
Sun 04:09:17 AM 37.6581 -109.1078 67° East 526 605 37,000  Level Denver Center
Sun 04:10:17 AM 37.7172 -108.9464 65° Northeast 528 608 37,000  Level Denver Center
Sun 04:11:17 AM 37.7833 -108.7539 66° East 530 610 37,000  Level Denver Center
Sun 04:12:18 AM 37.8406 -108.5900 66° East 532 612 37,000  Level Denver Center
Sun 04:13:18 AM 37.8969 -108.4281 66° East 528 608 37,000  Level Denver Center
Sun 04:14:18 AM 37.9639 -108.2350 66° East 532 612 37,000  Level Denver Center
Sun 04:15:19 AM 38.0186 -108.0694 67° East 533 613 37,000  Level Denver Center
Sun 04:16:19 AM 38.0747 -107.9078 66° East 531 611 37,000  Level Denver Center
Sun 04:17:20 AM 38.1392 -107.7150 67° East 532 612 37,000  Level Denver Center
Sun 04:18:20 AM 38.1942 -107.5508 67° East 530 610 37,000  Level Denver Center
Sun 04:19:20 AM 38.2492 -107.3875 67° East 527 606 37,000  Level Denver Center
Sun 04:20:21 AM 38.3039 -107.2231 67° East 529 609 37,000  Level Denver Center
Sun 04:21:21 AM 38.3575 -107.0642 67° East 523 602 37,000  Level Denver Center
Sun 04:22:21 AM 38.4139 -106.8906 67° East 531 611 37,000  Level Denver Center
Sun 04:23:22 AM 38.4811 -106.6839 67° East 529 609 37,000  Level Denver Center
Sun 04:24:22 AM 38.5375 -106.5106 67° East 529 609 37,000  Level Denver Center
Sun 04:25:22 AM 38.5928 -106.3364 68° East 531 611 37,000  Level Denver Center
Sun 04:26:23 AM 38.6517 -106.1581 67° East 536 617 37,000  Level Denver Center
Sun 04:27:23 AM 38.6967 -106.0117 68° East 532 612 37,000  Level Denver Center
Sun 04:28:23 AM 38.7642 -105.8008 68° East 534 615 37,000  Level Denver Center
Sun 04:29:24 AM 38.8078 -105.6628 68° East 528 608 37,000  Level Denver Center
Sun 04:30:24 AM 38.8725 -105.4547 68° East 527 606 37,000  Level Denver Center
Sun 04:31:24 AM 38.9261 -105.2814 68° East 526 605 37,000  Level Denver Center
Sun 04:32:25 AM 38.9792 -105.1083 68° East 524 603 37,000  Level Denver Center
Sun 04:33:25 AM 39.0328 -104.9336 68° East 530 610 37,000  Level Denver Center
Sun 04:34:26 AM 39.0867 -104.7597 68° East 530 610 37,000  Level Denver Center
Sun 04:35:26 AM 39.1397 -104.5853 69° East 530 610 37,000  Level Denver Center
Sun 04:36:26 AM 39.1922 -104.4100 69° East 530 610 37,000  Level Denver Center
Sun 04:37:27 AM 39.2444 -104.2331 69° East 534 615 37,000  Level Denver Center
Sun 04:38:27 AM 39.2969 -104.0581 69° East 530 610 37,000  Level Denver Center
Sun 04:39:27 AM 39.3486 -103.8836 69° East 526 605 37,000  Level Denver Center
Sun 04:40:28 AM 39.4000 -103.7058 69° East 529 609 37,000  Level Denver Center
Sun 04:41:28 AM 39.4531 -103.5272 69° East 534 615 37,000 -300 Level Denver Center
Sun 04:42:28 AM 39.5042 -103.3483 70° East 534 615 36,400 -744 Descending Denver Center
Sun 04:43:29 AM 39.5561 -103.1711 69° East 530 610 35,500 -942 Descending Denver Center
Sun 04:44:29 AM 39.6053 -102.9942 70° East 525 604 34,500 -950 Descending Denver Center
Sun 04:45:29 AM 39.6556 -102.8150 70° East 529 609 33,600 -942 Descending Denver Center
Sun 04:46:30 AM 39.7083 -102.6283 70° East 530 610 32,600 -1,041 Descending Denver Center
Sun 04:47:30 AM 39.7647 -102.4264 70° East 533 613 31,500 -1,000 Descending Denver Center
Sun 04:48:30 AM 39.8131 -102.2525 70° East 533 613 30,600 -893 Descending Denver Center
Sun 04:49:31 AM 39.8611 -102.0767 70° East 539 620 29,700 -793 Descending Denver Center
Sun 04:50:31 AM 39.9175 -101.8706 70° East 541 623 29,000 -350 Descending Denver Center
Sun 04:51:31 AM 39.9658 -101.6953 70° East 539 620 29,000  Level Denver Center
Sun 04:52:32 AM 40.0125 -101.5194 71° East 540 621 29,000  Level Denver Center
Sun 04:53:32 AM 40.0594 -101.3456 71° East 534 615 29,000  Level Denver Center
Sun 04:54:32 AM 40.1139 -101.1389 71° East 541 623 29,000  Level Denver Center
Sun 04:55:32 AM 40.1603 -100.9631 71° East 539 620 29,000  Level Denver Center
Sun 04:56:33 AM 40.2061 -100.7844 71° East 543 625 29,000  Level Denver Center
Sun 04:57:33 AM 40.2600 -100.5778 71° East 542 624 29,000  Level Denver Center
Sun 04:58:33 AM 40.3064 -100.3989 71° East 544 626 29,000  Level Denver Center
Sun 04:59:33 AM 40.3517 -100.2206 72° East 544 626 29,000  Level Denver Center
Sun 05:00:34 AM 40.4044 -100.0131 71° East 541 623 29,000  Level Denver Center
Sun 05:01:34 AM 40.4506 -99.8311 72° East 539 620 29,000  Level Denver Center
Sun 05:02:34 AM 40.4969 -99.6447 72° East 538 619 29,000  Level Denver Center
Sun 05:03:34 AM 40.5428 -99.4578 72° East 538 619 29,000  Level Denver Center
Sun 05:04:33 AM 40.5894 -99.2733 72° East 538 619 29,000  Level Minneapolis Center
Sun 05:05:33 AM 40.6344 -99.0883 72° East 536 617 29,000  Level Minneapolis Center
Sun 05:06:34 AM 40.6792 -98.9019 72° East 537 618 29,000  Level Minneapolis Center
Sun 05:07:34 AM 40.7231 -98.7147 73° East 540 621 29,000  Level Minneapolis Center
Sun 05:08:47 AM 40.7669 -98.5314 72° East 539 620 29,000  Level Minneapolis Center
Sun 05:09:47 AM 40.8211 -98.3031 73° East 540 621 29,000  Level Minneapolis Center
Sun 05:10:48 AM 40.8650 -98.1144 73° East 541 623 29,000  Level Minneapolis Center
Sun 05:11:48 AM 40.9086 -97.9258 73° East 541 623 29,000  Level Minneapolis Center
Sun 05:12:49 AM 40.9517 -97.7356 73° East 541 623 29,000  Level Minneapolis Center
Sun 05:13:49 AM 40.9950 -97.5456 73° East 542 624 29,000  Level Minneapolis Center
Sun 05:14:49 AM 41.0378 -97.3514 74° East 544 626 29,000  Level Minneapolis Center
Sun 05:15:50 AM 41.0817 -97.1611 73° East 542 624 29,000  Level Minneapolis Center
Sun 05:16:50 AM 41.1247 -96.9706 73° East 540 621 29,000  Level Minneapolis Center
Sun 05:17:50 AM 41.1664 -96.7803 74° East 538 619 29,000  Level Minneapolis Center
Sun 05:18:51 AM 41.2072 -96.5900 74° East 538 619 29,000  Level Minneapolis Center
Sun 05:19:51 AM 41.2492 -96.3997 74° East 539 620 29,000  Level Minneapolis Center
Sun 05:20:52 AM 41.2886 -96.2119 74° East 535 616 29,000  Level Minneapolis Center
Sun 05:21:52 AM 41.3289 -96.0217 74° East 535 616 29,000  Level Minneapolis Center
Sun 05:22:52 AM 41.3692 -95.8314 74° East 534 615 29,000  Level Minneapolis Center
Sun 05:23:53 AM 41.4133 -95.6194 74° East 532 612 29,000  Level Minneapolis Center
Sun 05:25:05 AM 41.4611 -95.3903 74° East 536 617 29,000  Level Minneapolis Center
Sun 05:26:05 AM 41.5003 -95.2017 74° East 531 611 29,000  Level Minneapolis Center
Sun 05:27:06 AM 41.5381 -95.0103 75° East 535 616 29,000  Level Minneapolis Center
Sun 05:28:06 AM 41.5761 -94.8219 75° East 527 606 29,000  Level Minneapolis Center
Sun 05:29:07 AM 41.6133 -94.6333 75° East 526 605 29,000  Level Minneapolis Center
Sun 05:30:07 AM 41.6506 -94.4447 75° East 526 605 29,000  Level Minneapolis Center
Sun 05:31:07 AM 41.6878 -94.2533 75° East 530 610 29,000  Level Minneapolis Center
Sun 05:32:08 AM 41.7256 -94.0631 75° East 530 610 29,000  Level Minneapolis Center
Sun 05:33:08 AM 41.7611 -93.8694 76° East 532 612 29,000  Level Minneapolis Center
Sun 05:34:08 AM 41.7953 -93.6922 75° East 531 611 29,000  Level Minneapolis Center
Sun 05:35:08 AM 41.8308 -93.4975 76° East 537 618 29,000  Level Minneapolis Center
Sun 05:36:09 AM 41.8692 -93.2994 75° East 545 627 29,000  Level Minneapolis Center
Sun 05:37:09 AM 41.9050 -93.1053 76° East 543 625 29,000  Level Minneapolis Center
Sun 05:38:09 AM 41.9397 -92.9100 76° East 541 623 29,000  Level Minneapolis Center
Sun 05:38:28 AM 41.9550 -92.8231 77° East 540 621 29,000  Level Chicago Center
Sun 05:39:28 AM 41.9897 -92.6294 76° East 539 620 29,000  Level Chicago Center
Sun 05:40:29 AM 42.0236 -92.4358 77° East 539 620 29,000  Level Chicago Center
Sun 05:41:29 AM 42.0583 -92.2414 76° East 541 623 29,000  Level Chicago Center
Sun 05:42:29 AM 42.0917 -92.0478 77° East 540 621 29,000  Level Chicago Center
Sun 05:43:30 AM 42.1253 -91.8517 77° East 544 626 29,000  Level Chicago Center
Sun 05:44:30 AM 42.1594 -91.6561 77° East 545 627 29,000  Level Chicago Center
Sun 05:45:30 AM 42.1914 -91.4614 77° East 544 626 29,000  Level Chicago Center
Sun 05:46:30 AM 42.2233 -91.2678 77° East 540 621 29,000  Level Chicago Center
Sun 05:47:31 AM 42.2622 -91.0333 77° East 542 624 29,000  Level Chicago Center
Sun 05:48:31 AM 42.2928 -90.8406 78° East 535 616 29,000 -650 Level Chicago Center
Sun 05:49:31 AM 42.3242 -90.6464 78° East 536 617 27,700 -1,686 Descending Chicago Center
Sun 05:50:32 AM 42.3519 -90.4617 78° East 513 590 25,600 -1,587 Descending Chicago Center
Sun 05:51:32 AM 42.3794 -90.2844 78° East 491 565 24,500 -800 Descending Chicago Center
Sun 05:52:32 AM 42.3881 -90.1050 86° East 483 556 24,000 -248 Descending Chicago Center
Sun 05:53:33 AM 42.3917 -89.9075 89° East 483 556 24,000  Level Chicago Center
Sun 05:54:33 AM 42.3972 -89.7281 88° East 478 550 24,000 -50 Level Chicago Center
Sun 05:55:33 AM 42.4017 -89.5475 88° East 480 552 23,900 -1,200 Descending Chicago Center
Sun 05:56:33 AM 42.4056 -89.3706 88° East 473 544 21,600 -2,331 Descending Chicago Center
Sun 05:57:34 AM 42.4092 -89.2033 88° East 451 519 19,200 -2,331 Descending Chicago Center
Sun 05:58:34 AM 42.4125 -89.0403 88° East 435 501 16,900 -2,200 Descending Chicago Center
Sun 05:59:34 AM 42.4025 -88.8847 95° East 416 479 14,800 -2,033 Descending Chicago Center
Sun 06:00:35 AM 42.3917 -88.7344 96° East 404 465 12,800 -2,182 Descending Chicago Center
Sun 06:01:35 AM 42.3811 -88.5908 96° East 388 447 10,400 -1,400 Descending Chicago Center
Sun 06:02:35 AM 42.3614 -88.4533 101° East 370 426 10,000 -200 Descending Chicago Center
Sun 06:03:35 AM 42.3111 -88.3378 120° Southeast 366 421 10,000  Level Chicago Center
Sun 06:04:36 AM 42.2617 -88.2158 119° Southeast 369 425 10,000 -50 Level Chicago Center
Sun 06:05:36 AM 42.2147 -88.0908 117° Southeast 373 429 9,900 -350 Descending Chicago Center
Sun 06:06:36 AM 42.1800 -87.9831 113° Southeast 326 375 9,300 -1,000 Descending Chicago Center
Sun 06:07:36 AM 42.1553 -87.8758 107° East 303 349 7,900 -1,388 Descending Chicago Center
Sun 06:08:37 AM 42.1275 -87.7703 110° East 300 345 6,500 -1,339 Descending Chicago Center
Sun 06:09:37 AM 42.1003 -87.6669 110° East 296 341 5,200 -1,000 Descending Chicago Center
Sun 06:10:37 AM 42.0364 -87.6275 155° Southeast 268 308 4,500 -800 Descending Chicago Center
Sun 06:11:37 AM 41.9894 -87.6753 217° Southwest 230 265 3,600 -900 Descending Chicago Center

Login

Don't have an account? Register now (free) for customized features, flight alerts, and more!